createdAt,value
2022-10-20T03:47:18.772Z,15.00
2022-10-20T03:49:45.516Z,14.90
2022-10-20T03:52:12.255Z,14.90
2022-10-20T03:54:40.786Z,15.00
2022-10-20T03:57:08.162Z,15.00
2022-10-20T03:59:35.141Z,15.00
2022-10-20T04:02:02.069Z,15.00
2022-10-20T04:04:28.773Z,15.00
2022-10-20T04:06:55.481Z,15.00
2022-10-20T04:09:22.128Z,15.00
2022-10-20T04:11:48.888Z,15.10
2022-10-20T04:14:15.552Z,15.10
2022-10-20T04:16:42.221Z,15.10
2022-10-20T04:19:08.952Z,15.00
2022-10-20T04:21:35.606Z,14.90
2022-10-20T04:24:02.234Z,14.90
2022-10-20T04:26:28.901Z,14.90
2022-10-20T04:28:57.169Z,14.90
2022-10-20T04:31:23.924Z,14.90
2022-10-20T04:33:50.577Z,14.90
2022-10-20T04:36:17.358Z,15.00
2022-10-20T04:38:44.034Z,14.90
2022-10-20T04:41:11.001Z,15.00
2022-10-20T04:43:37.731Z,15.00
2022-10-20T04:46:08.298Z,15.00
2022-10-20T04:48:36.526Z,15.00
2022-10-20T04:51:14.517Z,15.00
2022-10-20T04:53:41.305Z,15.00
2022-10-20T04:56:12.237Z,15.00
2022-10-20T04:58:38.966Z,15.00
2022-10-20T05:01:08.336Z,15.00
2022-10-20T05:03:36.289Z,15.00
2022-10-20T05:06:17.550Z,14.90
2022-10-20T05:08:46.616Z,14.90
2022-10-20T05:11:14.438Z,14.90
2022-10-20T05:13:41.314Z,15.00
2022-10-20T05:16:08.942Z,15.00
2022-10-20T05:18:35.896Z,15.00
2022-10-20T05:21:10.899Z,15.00
2022-10-20T05:23:39.253Z,15.00
2022-10-20T05:26:08.939Z,15.00
2022-10-20T05:28:35.617Z,15.00
2022-10-20T05:31:04.055Z,15.00
2022-10-20T05:33:30.826Z,15.10
2022-10-20T05:35:57.466Z,15.00
2022-10-20T05:38:24.405Z,15.00
2022-10-20T05:40:51.133Z,15.00
2022-10-20T05:43:17.849Z,15.00
2022-10-20T05:45:44.501Z,15.00
2022-10-20T05:48:11.162Z,15.00
2022-10-20T05:50:38.591Z,15.10
2022-10-20T05:53:05.329Z,15.00
2022-10-20T05:55:32.891Z,15.00
2022-10-20T05:57:59.534Z,15.00
2022-10-20T06:00:30.965Z,15.00
2022-10-20T06:02:58.382Z,15.00
2022-10-20T06:05:25.167Z,15.00
2022-10-20T06:07:54.561Z,15.10
2022-10-20T06:10:21.210Z,15.10
2022-10-20T06:12:47.872Z,15.10
2022-10-20T06:15:14.583Z,15.10
2022-10-20T06:17:41.243Z,15.10
2022-10-20T06:20:08.378Z,15.20
2022-10-20T06:22:35.391Z,15.20
2022-10-20T06:25:02.235Z,15.20
2022-10-20T06:27:28.942Z,15.20
2022-10-20T06:29:55.602Z,15.30
2022-10-20T06:32:22.241Z,15.30
2022-10-20T06:34:48.881Z,15.30
2022-10-20T06:37:15.626Z,15.30
2022-10-20T06:39:42.266Z,15.30
2022-10-20T06:42:11.312Z,15.30
2022-10-20T06:44:38.980Z,15.30
2022-10-20T06:47:10.102Z,15.40
2022-10-20T06:49:36.848Z,15.40
2022-10-20T06:52:03.860Z,15.40
2022-10-20T06:54:30.749Z,15.40
2022-10-20T06:56:57.503Z,15.40
2022-10-20T06:59:24.187Z,15.40
2022-10-20T07:01:50.931Z,15.40
2022-10-20T07:04:17.730Z,15.40
2022-10-20T07:06:46.245Z,15.40
2022-10-20T07:09:18.906Z,15.40
2022-10-20T07:11:46.324Z,15.40
2022-10-20T07:14:13.866Z,15.40
2022-10-20T07:16:40.775Z,15.40
2022-10-20T07:19:07.534Z,15.40
2022-10-20T07:21:38.191Z,15.40
2022-10-20T07:24:07.802Z,15.40
2022-10-20T07:26:36.977Z,15.40
2022-10-20T07:29:05.006Z,15.40
2022-10-20T07:31:40.784Z,15.40
2022-10-20T07:34:27.224Z,15.50
2022-10-20T07:36:55.562Z,15.50
2022-10-20T07:39:22.514Z,15.50
2022-10-20T07:41:49.456Z,15.60
2022-10-20T07:44:16.750Z,15.60
2022-10-20T07:46:43.894Z,15.70
2022-10-20T07:49:42.319Z,15.70
2022-10-20T07:51:57.442Z,15.70
2022-10-20T07:54:24.191Z,15.80
2022-10-20T07:56:51.195Z,15.80
2022-10-20T07:59:17.951Z,15.80
2022-10-20T08:01:44.844Z,15.90
2022-10-20T08:04:11.609Z,15.90
2022-10-20T08:06:39.136Z,16.00
2022-10-20T08:09:07.188Z,16.00
2022-10-20T08:11:34.339Z,16.00
2022-10-20T08:14:01.015Z,16.10
2022-10-20T08:16:30.571Z,16.10
2022-10-20T08:19:03.369Z,16.10
2022-10-20T08:21:30.158Z,16.10
2022-10-20T08:23:56.891Z,16.10
2022-10-20T08:26:26.564Z,16.10
2022-10-20T08:28:54.918Z,16.10
2022-10-20T08:31:22.109Z,16.20
2022-10-20T08:33:52.584Z,16.10
2022-10-20T08:36:21.043Z,16.10
2022-10-20T08:38:47.998Z,16.10
2022-10-20T08:41:21.932Z,16.10
2022-10-20T08:43:52.230Z,16.10
2022-10-20T08:46:30.346Z,16.00
2022-10-20T08:48:57.761Z,16.10
2022-10-20T08:51:32.549Z,16.00
2022-10-20T08:54:02.066Z,16.20
2022-10-20T08:56:31.281Z,16.30
2022-10-20T08:58:57.982Z,16.40
2022-10-20T09:01:32.967Z,16.60
2022-10-20T09:04:34.513Z,16.70
2022-10-20T09:07:08.929Z,16.70
2022-10-20T09:09:36.335Z,16.70
2022-10-20T09:12:12.366Z,16.70
2022-10-20T09:14:39.308Z,16.90
2022-10-20T09:17:11.690Z,16.90
2022-10-20T09:19:39.146Z,17.10
2022-10-20T09:22:07.249Z,17.20
2022-10-20T09:24:35.956Z,17.40
2022-10-20T09:27:30.841Z,17.60
2022-10-20T09:29:57.519Z,17.70
2022-10-20T09:32:51.631Z,17.60
2022-10-20T09:35:26.306Z,17.70
2022-10-20T09:38:02.391Z,17.60
2022-10-20T09:40:29.800Z,17.50
2022-10-20T09:43:18.272Z,17.20
2022-10-20T09:45:53.595Z,17.20
2022-10-20T09:48:28.973Z,17.10
2022-10-20T09:50:58.563Z,16.90
2022-10-20T09:53:35.997Z,16.80
2022-10-20T09:56:02.905Z,16.80
2022-10-20T09:58:33.665Z,16.80
2022-10-20T10:01:12.245Z,16.80
2022-10-20T10:03:41.938Z,16.90
2022-10-20T10:06:29.905Z,17.00
2022-10-20T10:08:59.124Z,17.10
2022-10-20T10:11:38.212Z,17.20
2022-10-20T10:14:05.618Z,17.30
2022-10-20T10:16:43.042Z,17.40
2022-10-20T10:19:20.667Z,17.30
2022-10-20T10:21:53.083Z,17.20
2022-10-20T10:24:35.561Z,17.10
2022-10-20T10:27:02.357Z,17.10
2022-10-20T10:29:36.084Z,17.00
2022-10-20T10:32:15.075Z,17.00
2022-10-20T10:35:08.053Z,16.80
2022-10-20T10:37:36.380Z,16.40
2022-10-20T10:40:13.566Z,16.30
2022-10-20T10:43:00.131Z,16.40
2022-10-20T10:45:40.956Z,16.50
2022-10-20T10:48:31.909Z,16.50
2022-10-20T10:51:00.029Z,16.40
2022-10-20T10:53:45.253Z,16.50
2022-10-20T10:56:39.217Z,16.40
2022-10-20T10:59:11.726Z,16.50
2022-10-20T11:02:03.384Z,16.50
2022-10-20T11:04:35.790Z,16.30
2022-10-20T11:07:19.931Z,16.20
2022-10-20T11:10:04.712Z,16.20
2022-10-20T11:13:02.513Z,16.10
2022-10-20T11:15:54.449Z,16.20
2022-10-20T11:18:52.954Z,16.30
2022-10-20T11:21:52.865Z,16.40
2022-10-20T11:24:47.722Z,16.40
2022-10-20T11:27:22.380Z,16.30
2022-10-20T11:29:50.220Z,16.40
2022-10-20T11:32:22.928Z,16.40
2022-10-20T11:35:05.833Z,16.50
2022-10-20T11:37:41.417Z,16.70
2022-10-20T11:40:11.161Z,16.70
2022-10-20T11:42:49.981Z,16.70
2022-10-20T11:45:35.699Z,16.80
2022-10-20T11:48:07.518Z,16.50
2022-10-20T11:50:34.992Z,16.40
2022-10-20T11:53:32.865Z,16.20
2022-10-20T11:56:06.718Z,16.10
2022-10-20T11:58:58.473Z,16.10
2022-10-20T12:01:31.943Z,16.20
2022-10-20T12:04:28.837Z,16.20
2022-10-20T12:07:08.364Z,16.30
2022-10-20T12:10:19.217Z,16.40
2022-10-20T12:13:16.229Z,16.40
2022-10-20T12:15:48.346Z,16.40
2022-10-20T12:18:32.420Z,16.40
2022-10-20T12:21:11.189Z,16.30
2022-10-20T12:23:46.757Z,16.30
2022-10-20T12:26:34.254Z,16.50
2022-10-20T12:29:20.405Z,16.80
2022-10-20T12:32:24.071Z,16.70
2022-10-20T12:34:58.014Z,16.90
2022-10-20T12:37:28.966Z,17.10
2022-10-20T12:40:07.976Z,17.30
2022-10-20T12:42:41.868Z,17.40
2022-10-20T12:45:24.036Z,17.40
2022-10-20T12:47:56.810Z,17.50
2022-10-20T12:50:32.854Z,17.60
2022-10-20T12:53:17.777Z,17.70
2022-10-20T12:55:58.395Z,17.80
2022-10-20T12:58:31.608Z,17.90
2022-10-20T13:00:58.576Z,17.90
2022-10-20T13:03:49.141Z,17.90
2022-10-20T13:06:30.057Z,17.90
2022-10-20T13:09:10.450Z,17.90
2022-10-20T13:11:40.971Z,17.90
2022-10-20T13:14:21.951Z,18.00
2022-10-20T13:17:03.382Z,18.00
2022-10-20T13:19:38.633Z,18.10
2022-10-20T13:22:31.221Z,18.10
2022-10-20T13:24:59.457Z,18.00
2022-10-20T13:27:26.397Z,18.00
2022-10-20T13:29:53.445Z,18.00
2022-10-20T13:32:20.042Z,17.90
2022-10-20T13:34:58.879Z,18.00
2022-10-20T13:37:50.431Z,18.00
2022-10-20T13:40:40.039Z,17.90
2022-10-20T13:43:24.646Z,17.90
2022-10-20T13:45:54.249Z,17.90
2022-10-20T13:48:42.637Z,17.80
2022-10-20T13:51:21.283Z,17.80
2022-10-20T13:53:52.854Z,17.70
2022-10-20T13:56:36.835Z,17.70
2022-10-20T13:59:21.006Z,17.70
2022-10-20T14:01:55.618Z,17.70
2022-10-20T14:04:36.619Z,17.40
2022-10-20T14:07:13.081Z,17.30
2022-10-20T14:09:43.873Z,17.30
2022-10-20T14:12:23.653Z,17.10
2022-10-20T14:14:50.606Z,16.90
2022-10-20T14:17:22.410Z,16.60
2022-10-20T14:19:51.113Z,16.70
2022-10-20T14:22:25.467Z,16.70
2022-10-20T14:24:57.607Z,16.70
2022-10-20T14:27:31.410Z,16.80
2022-10-20T14:29:59.571Z,16.80
2022-10-20T14:32:29.086Z,16.80
2022-10-20T14:35:37.961Z,16.80
2022-10-20T14:38:23.831Z,16.60
2022-10-20T14:40:58.891Z,16.40
2022-10-20T14:43:42.681Z,16.40
2022-10-20T14:46:11.120Z,16.40
2022-10-20T14:48:44.707Z,16.30
2022-10-20T14:51:33.058Z,16.40
2022-10-20T14:54:17.215Z,16.40
2022-10-20T14:56:46.342Z,16.50
2022-10-20T14:59:23.198Z,16.60
2022-10-20T15:02:02.522Z,16.70
2022-10-20T15:04:32.211Z,16.70
2022-10-20T15:07:28.964Z,16.80
2022-10-20T15:10:07.630Z,16.80
2022-10-20T15:12:37.087Z,16.80
2022-10-20T15:15:10.203Z,16.70
2022-10-20T15:17:39.730Z,16.80
2022-10-20T15:20:34.343Z,16.80
2022-10-20T15:23:09.994Z,16.80
2022-10-20T15:25:48.744Z,16.80
2022-10-20T15:28:31.430Z,16.90
2022-10-20T15:30:59.737Z,16.90
2022-10-20T15:33:26.572Z,16.90
2022-10-20T15:35:53.918Z,16.90
2022-10-20T15:38:20.907Z,16.90
2022-10-20T15:40:47.687Z,16.90
2022-10-20T15:43:17.026Z,16.90
2022-10-20T15:45:54.042Z,16.90
2022-10-20T15:48:23.077Z,16.90
2022-10-20T15:50:49.840Z,16.80
2022-10-20T15:53:18.362Z,16.80
2022-10-20T15:55:45.606Z,16.80
2022-10-20T15:58:12.461Z,16.90
2022-10-20T16:00:39.466Z,16.80
2022-10-20T16:03:06.447Z,16.80
2022-10-20T16:05:33.903Z,16.80
2022-10-20T16:08:00.628Z,16.80
2022-10-20T16:10:29.578Z,16.70
2022-10-20T16:12:57.898Z,16.60
2022-10-20T16:15:30.303Z,16.50
2022-10-20T16:17:58.428Z,16.40
2022-10-20T16:20:25.219Z,16.30
2022-10-20T16:22:52.304Z,16.30
2022-10-20T16:25:18.945Z,16.30
2022-10-20T16:27:45.669Z,16.20
2022-10-20T16:30:12.387Z,16.30
2022-10-20T16:32:39.166Z,16.20
2022-10-20T16:35:06.643Z,16.10
2022-10-20T16:37:34.138Z,15.90
2022-10-20T16:40:01.010Z,15.60
2022-10-20T16:42:30.254Z,15.60
2022-10-20T16:44:57.548Z,15.70
2022-10-20T16:47:25.454Z,15.70
2022-10-20T16:49:52.528Z,15.60
2022-10-20T16:52:19.177Z,15.50
2022-10-20T16:54:45.894Z,15.50
2022-10-20T16:57:13.234Z,15.50
2022-10-20T16:59:41.234Z,15.50
2022-10-20T17:02:07.893Z,15.50
2022-10-20T17:04:34.552Z,15.40
2022-10-20T17:07:01.215Z,15.30
2022-10-20T17:09:29.900Z,15.40
2022-10-20T17:11:57.109Z,15.40
2022-10-20T17:14:23.852Z,15.40
2022-10-20T17:16:50.540Z,15.40
2022-10-20T17:19:17.588Z,15.40
2022-10-20T17:21:44.402Z,15.40
2022-10-20T17:24:12.443Z,15.40
2022-10-20T17:26:40.626Z,15.40
2022-10-20T17:29:09.186Z,15.40
2022-10-20T17:31:37.580Z,15.40
2022-10-20T17:34:05.227Z,15.30
2022-10-20T17:36:32.522Z,15.20
2022-10-20T17:39:02.332Z,15.20
2022-10-20T17:41:29.553Z,15.20
2022-10-20T17:43:58.758Z,15.30
2022-10-20T17:46:25.465Z,15.30
2022-10-20T17:48:52.162Z,15.40
2022-10-20T17:51:26.806Z,15.40
2022-10-20T17:53:57.956Z,15.40
2022-10-20T17:56:27.636Z,15.50
2022-10-20T17:58:56.003Z,15.50
2022-10-20T18:01:28.039Z,15.50
2022-10-20T18:03:59.730Z,15.50
2022-10-20T18:06:33.565Z,15.50
2022-10-20T18:09:04.238Z,15.50
2022-10-20T18:11:33.532Z,15.50
2022-10-20T18:14:01.067Z,15.50
2022-10-20T18:16:29.970Z,15.40
2022-10-20T18:21:31.478Z,15.20
2022-10-20T18:24:03.886Z,15.00
2022-10-20T18:26:32.966Z,15.00
2022-10-20T18:29:01.702Z,15.20
2022-10-20T18:31:31.193Z,15.20
2022-10-20T18:34:04.427Z,15.20
2022-10-20T18:36:33.191Z,15.10
2022-10-20T18:39:00.648Z,15.10
2022-10-20T18:41:33.088Z,15.10
2022-10-20T18:44:01.656Z,15.20
2022-10-20T18:46:30.172Z,15.20
2022-10-20T18:48:57.856Z,15.20
2022-10-20T18:51:24.837Z,15.20
2022-10-20T18:53:54.790Z,15.20
2022-10-20T18:56:23.842Z,15.10
2022-10-20T18:58:54.422Z,15.10
2022-10-20T19:01:27.054Z,15.00
2022-10-20T19:03:55.718Z,15.10
2022-10-20T19:06:25.397Z,15.10
2022-10-20T19:08:57.359Z,15.10
2022-10-20T19:11:29.058Z,15.10
2022-10-20T19:13:56.653Z,15.10
2022-10-20T19:16:26.417Z,15.10
2022-10-20T19:18:55.361Z,15.00
2022-10-20T19:21:22.757Z,14.90
2022-10-20T19:23:52.975Z,15.00
2022-10-20T19:26:25.238Z,15.00
2022-10-20T19:28:58.606Z,14.90
2022-10-20T19:31:31.671Z,14.90
2022-10-20T19:34:19.597Z,14.90
2022-10-20T19:36:46.969Z,14.90
2022-10-20T19:39:16.144Z,14.90
2022-10-20T19:41:42.960Z,14.90
2022-10-20T19:44:15.351Z,14.90
2022-10-20T19:46:47.414Z,14.90
2022-10-20T19:49:14.946Z,14.90
2022-10-20T19:51:41.763Z,14.90
2022-10-20T19:54:09.479Z,14.90
2022-10-20T19:56:36.690Z,14.90
2022-10-20T19:59:04.954Z,14.90
2022-10-20T20:01:34.456Z,14.80
2022-10-20T20:04:01.376Z,14.80
2022-10-20T20:06:28.802Z,14.80
2022-10-20T20:09:01.398Z,14.80
2022-10-20T20:11:30.932Z,14.70
2022-10-20T20:14:03.927Z,14.70
2022-10-20T20:16:30.707Z,14.70
2022-10-20T20:18:57.749Z,14.70
2022-10-20T20:21:25.172Z,14.60
2022-10-20T20:24:11.973Z,14.60
2022-10-20T20:26:38.683Z,14.70
2022-10-20T20:29:06.016Z,14.60
2022-10-20T20:31:33.222Z,14.60
2022-10-20T20:33:59.943Z,14.60
2022-10-20T20:36:27.646Z,14.70
2022-10-20T20:38:57.435Z,14.60
2022-10-20T20:41:26.543Z,14.60
2022-10-20T20:43:53.708Z,14.60
2022-10-20T20:46:22.619Z,14.60
2022-10-20T20:48:49.705Z,14.60
2022-10-20T20:51:16.605Z,14.60
2022-10-20T20:53:43.286Z,14.60
2022-10-20T20:56:12.513Z,14.60
2022-10-20T20:58:40.660Z,14.60
2022-10-20T21:01:17.356Z,14.60
2022-10-20T21:03:44.498Z,14.60
2022-10-20T21:06:13.945Z,14.60
2022-10-20T21:08:42.664Z,14.50
2022-10-20T21:11:27.930Z,14.50
2022-10-20T21:13:56.289Z,14.50
2022-10-20T21:16:34.463Z,14.50
2022-10-20T21:19:11.706Z,14.50
2022-10-20T21:21:44.290Z,14.40
2022-10-20T21:24:12.654Z,14.50
2022-10-20T21:26:39.840Z,14.40
2022-10-20T21:29:06.646Z,14.20
2022-10-20T21:31:33.549Z,14.10
2022-10-20T21:34:02.687Z,14.10
2022-10-20T21:36:32.355Z,14.10
2022-10-20T21:39:00.427Z,14.20
2022-10-20T21:41:30.135Z,14.20
2022-10-20T21:43:58.573Z,14.20
2022-10-20T21:46:30.915Z,14.20
2022-10-20T21:49:10.607Z,14.10
2022-10-20T21:51:40.092Z,14.10
2022-10-20T21:54:10.964Z,14.20
2022-10-20T21:56:41.105Z,14.20
2022-10-20T21:59:12.198Z,14.30
2022-10-20T22:01:38.877Z,14.30
2022-10-20T22:04:05.644Z,14.30
2022-10-20T22:06:32.296Z,14.30
2022-10-20T22:08:59.561Z,14.30
2022-10-20T22:11:31.909Z,14.10
2022-10-20T22:13:59.382Z,14.10
2022-10-20T22:16:30.039Z,14.10
2022-10-20T22:19:02.682Z,14.10
2022-10-20T22:21:30.147Z,14.10
2022-10-20T22:23:58.410Z,14.10
2022-10-20T22:26:29.369Z,14.10
2022-10-20T22:28:57.237Z,14.20
2022-10-20T22:31:24.646Z,14.30
2022-10-20T22:33:52.656Z,14.30
2022-10-20T22:36:19.934Z,14.20
2022-10-20T22:38:46.690Z,14.20
2022-10-20T22:41:13.480Z,14.10
2022-10-20T22:43:40.439Z,14.10
2022-10-20T22:46:07.706Z,14.10
2022-10-20T22:48:34.892Z,14.10
2022-10-20T22:51:05.252Z,14.10
2022-10-20T22:53:32.317Z,14.10
2022-10-20T22:56:11.546Z,14.20
2022-10-20T22:58:38.764Z,14.30
